sensor_id;sensor_type;location;lat;lon;timestamp;temperature;humidity
11772;DHT22;12556;55.748;13.194;2022-09-09T00:00:27;13.80;99.90
11772;DHT22;12556;55.748;13.194;2022-09-09T00:03:02;13.80;99.90
11772;DHT22;12556;55.748;13.194;2022-09-09T00:05:41;13.80;99.90
11772;DHT22;12556;55.748;13.194;2022-09-09T00:08:15;13.80;99.90
11772;DHT22;12556;55.748;13.194;2022-09-09T00:10:43;13.80;99.90
11772;DHT22;12556;55.748;13.194;2022-09-09T00:13:16;13.80;99.90
11772;DHT22;12556;55.748;13.194;2022-09-09T00:15:53;13.80;99.90
11772;DHT22;12556;55.748;13.194;2022-09-09T00:18:25;13.80;99.90
11772;DHT22;12556;55.748;13.194;2022-09-09T00:20:59;13.80;99.90
11772;DHT22;12556;55.748;13.194;2022-09-09T00:23:32;13.80;99.90
11772;DHT22;12556;55.748;13.194;2022-09-09T00:26:04;13.80;99.90
11772;DHT22;12556;55.748;13.194;2022-09-09T00:28:39;13.80;99.90
11772;DHT22;12556;55.748;13.194;2022-09-09T00:31:12;13.80;99.90
11772;DHT22;12556;55.748;13.194;2022-09-09T00:33:40;13.80;99.90
11772;DHT22;12556;55.748;13.194;2022-09-09T00:36:13;13.80;99.90
11772;DHT22;12556;55.748;13.194;2022-09-09T00:38:45;13.80;99.90
11772;DHT22;12556;55.748;13.194;2022-09-09T00:41:20;13.80;99.90
11772;DHT22;12556;55.748;13.194;2022-09-09T00:43:55;13.80;99.90
11772;DHT22;12556;55.748;13.194;2022-09-09T00:46:41;13.80;99.90
11772;DHT22;12556;55.748;13.194;2022-09-09T00:49:23;13.80;99.90
11772;DHT22;12556;55.748;13.194;2022-09-09T00:52:02;13.80;99.90
11772;DHT22;12556;55.748;13.194;2022-09-09T00:54:40;13.80;99.90
11772;DHT22;12556;55.748;13.194;2022-09-09T00:57:25;13.80;99.90
11772;DHT22;12556;55.748;13.194;2022-09-09T00:59:59;13.80;99.90
11772;DHT22;12556;55.748;13.194;2022-09-09T01:02:36;13.80;99.90
11772;DHT22;12556;55.748;13.194;2022-09-09T01:05:09;13.80;99.90
11772;DHT22;12556;55.748;13.194;2022-09-09T01:07:40;13.80;99.90
11772;DHT22;12556;55.748;13.194;2022-09-09T01:10:21;13.70;99.90
11772;DHT22;12556;55.748;13.194;2022-09-09T01:12:52;13.80;99.90
11772;DHT22;12556;55.748;13.194;2022-09-09T01:15:22;13.70;99.90
11772;DHT22;12556;55.748;13.194;2022-09-09T01:17:56;13.80;99.90
11772;DHT22;12556;55.748;13.194;2022-09-09T01:20:31;13.70;99.90
11772;DHT22;12556;55.748;13.194;2022-09-09T01:23:16;13.70;99.90
11772;DHT22;12556;55.748;13.194;2022-09-09T01:28:47;13.60;99.90
11772;DHT22;12556;55.748;13.194;2022-09-09T01:31:18;13.60;99.90
11772;DHT22;12556;55.748;13.194;2022-09-09T01:33:47;13.60;99.90
11772;DHT22;12556;55.748;13.194;2022-09-09T01:36:20;13.60;99.90
11772;DHT22;12556;55.748;13.194;2022-09-09T01:38:48;13.60;99.90
11772;DHT22;12556;55.748;13.194;2022-09-09T01:41:15;13.60;99.90
11772;DHT22;12556;55.748;13.194;2022-09-09T01:43:42;13.60;99.90
11772;DHT22;12556;55.748;13.194;2022-09-09T01:46:11;13.60;99.90
11772;DHT22;12556;55.748;13.194;2022-09-09T01:48:39;13.60;99.90
11772;DHT22;12556;55.748;13.194;2022-09-09T01:51:08;13.60;99.90
11772;DHT22;12556;55.748;13.194;2022-09-09T01:53:36;13.60;99.90
11772;DHT22;12556;55.748;13.194;2022-09-09T01:56:11;13.50;99.90
11772;DHT22;12556;55.748;13.194;2022-09-09T01:58:51;13.50;99.90
11772;DHT22;12556;55.748;13.194;2022-09-09T02:01:27;13.50;99.90
11772;DHT22;12556;55.748;13.194;2022-09-09T02:03:57;13.50;99.90
11772;DHT22;12556;55.748;13.194;2022-09-09T02:06:31;13.40;99.90
11772;DHT22;12556;55.748;13.194;2022-09-09T02:09:04;13.40;99.90
11772;DHT22;12556;55.748;13.194;2022-09-09T02:11:32;13.40;99.90
11772;DHT22;12556;55.748;13.194;2022-09-09T02:14:01;13.30;99.90
11772;DHT22;12556;55.748;13.194;2022-09-09T02:16:34;13.40;99.90
11772;DHT22;12556;55.748;13.194;2022-09-09T02:19:07;13.30;99.90
11772;DHT22;12556;55.748;13.194;2022-09-09T02:21:36;13.30;99.90
11772;DHT22;12556;55.748;13.194;2022-09-09T02:24:05;13.30;99.90
11772;DHT22;12556;55.748;13.194;2022-09-09T02:26:39;13.30;99.90
11772;DHT22;12556;55.748;13.194;2022-09-09T02:29:09;13.30;99.90
11772;DHT22;12556;55.748;13.194;2022-09-09T02:31:41;13.30;99.90
11772;DHT22;12556;55.748;13.194;2022-09-09T02:34:09;13.30;99.90
11772;DHT22;12556;55.748;13.194;2022-09-09T02:36:38;13.20;99.90
11772;DHT22;12556;55.748;13.194;2022-09-09T02:39:08;13.30;99.90
11772;DHT22;12556;55.748;13.194;2022-09-09T02:41:38;13.30;99.90
11772;DHT22;12556;55.748;13.194;2022-09-09T02:44:08;13.30;99.90
11772;DHT22;12556;55.748;13.194;2022-09-09T02:46:58;13.20;99.90
11772;DHT22;12556;55.748;13.194;2022-09-09T02:49:38;13.30;99.90
11772;DHT22;12556;55.748;13.194;2022-09-09T02:52:08;13.30;99.90
11772;DHT22;12556;55.748;13.194;2022-09-09T02:54:38;13.30;99.90
11772;DHT22;12556;55.748;13.194;2022-09-09T02:57:10;13.30;99.90
11772;DHT22;12556;55.748;13.194;2022-09-09T02:59:37;13.30;99.90
11772;DHT22;12556;55.748;13.194;2022-09-09T03:02:06;13.30;99.90
11772;DHT22;12556;55.748;13.194;2022-09-09T03:04:33;13.30;99.90
11772;DHT22;12556;55.748;13.194;2022-09-09T03:06:59;13.40;99.90
11772;DHT22;12556;55.748;13.194;2022-09-09T03:09:29;13.30;99.90
11772;DHT22;12556;55.748;13.194;2022-09-09T03:11:56;13.30;99.90
11772;DHT22;12556;55.748;13.194;2022-09-09T03:14:23;13.30;99.90
11772;DHT22;12556;55.748;13.194;2022-09-09T03:16:51;13.40;99.90
11772;DHT22;12556;55.748;13.194;2022-09-09T03:19:19;13.40;99.90
11772;DHT22;12556;55.748;13.194;2022-09-09T03:21:47;13.40;99.90
11772;DHT22;12556;55.748;13.194;2022-09-09T03:24:14;13.40;99.90
11772;DHT22;12556;55.748;13.194;2022-09-09T03:26:42;13.50;99.90
11772;DHT22;12556;55.748;13.194;2022-09-09T03:29:10;13.40;99.90
11772;DHT22;12556;55.748;13.194;2022-09-09T03:31:38;13.50;99.90
11772;DHT22;12556;55.748;13.194;2022-09-09T03:34:04;13.50;99.90
11772;DHT22;12556;55.748;13.194;2022-09-09T03:36:33;13.50;99.90
11772;DHT22;12556;55.748;13.194;2022-09-09T03:38:59;13.50;99.90
11772;DHT22;12556;55.748;13.194;2022-09-09T03:41:28;13.50;99.90
11772;DHT22;12556;55.748;13.194;2022-09-09T03:43:55;13.50;99.90
11772;DHT22;12556;55.748;13.194;2022-09-09T03:46:24;13.50;99.90
11772;DHT22;12556;55.748;13.194;2022-09-09T03:48:51;13.40;99.90
11772;DHT22;12556;55.748;13.194;2022-09-09T03:51:19;13.40;99.90
11772;DHT22;12556;55.748;13.194;2022-09-09T03:53:48;13.50;99.90
11772;DHT22;12556;55.748;13.194;2022-09-09T03:56:15;13.40;99.90
11772;DHT22;12556;55.748;13.194;2022-09-09T03:58:41;13.40;99.90
11772;DHT22;12556;55.748;13.194;2022-09-09T04:01:10;13.50;99.90
11772;DHT22;12556;55.748;13.194;2022-09-09T04:03:39;13.40;99.90
11772;DHT22;12556;55.748;13.194;2022-09-09T04:06:08;13.40;99.90
11772;DHT22;12556;55.748;13.194;2022-09-09T04:08:37;13.40;99.90
11772;DHT22;12556;55.748;13.194;2022-09-09T04:11:06;13.40;99.90
11772;DHT22;12556;55.748;13.194;2022-09-09T04:13:33;13.40;99.90
11772;DHT22;12556;55.748;13.194;2022-09-09T04:16:02;13.40;99.90
11772;DHT22;12556;55.748;13.194;2022-09-09T04:18:30;13.40;99.90
11772;DHT22;12556;55.748;13.194;2022-09-09T04:20:57;13.40;99.90
11772;DHT22;12556;55.748;13.194;2022-09-09T04:23:26;13.40;99.90
11772;DHT22;12556;55.748;13.194;2022-09-09T04:25:55;13.40;99.90
11772;DHT22;12556;55.748;13.194;2022-09-09T04:28:26;13.40;99.90
11772;DHT22;12556;55.748;13.194;2022-09-09T04:30:53;13.40;99.90
11772;DHT22;12556;55.748;13.194;2022-09-09T04:33:20;13.40;99.90
11772;DHT22;12556;55.748;13.194;2022-09-09T04:35:49;13.40;99.90
11772;DHT22;12556;55.748;13.194;2022-09-09T04:38:16;13.40;99.90
11772;DHT22;12556;55.748;13.194;2022-09-09T04:40:43;13.40;99.90
11772;DHT22;12556;55.748;13.194;2022-09-09T04:43:11;13.40;99.90
11772;DHT22;12556;55.748;13.194;2022-09-09T04:45:39;13.40;99.90
11772;DHT22;12556;55.748;13.194;2022-09-09T04:48:06;13.40;99.90
11772;DHT22;12556;55.748;13.194;2022-09-09T04:50:33;13.40;99.90
11772;DHT22;12556;55.748;13.194;2022-09-09T04:53:00;13.40;99.90
11772;DHT22;12556;55.748;13.194;2022-09-09T04:55:30;13.40;99.90
11772;DHT22;12556;55.748;13.194;2022-09-09T04:57:57;13.40;99.90
11772;DHT22;12556;55.748;13.194;2022-09-09T05:00:29;13.40;99.90
11772;DHT22;12556;55.748;13.194;2022-09-09T05:02:57;13.40;99.90
11772;DHT22;12556;55.748;13.194;2022-09-09T05:05:24;13.60;99.90
11772;DHT22;12556;55.748;13.194;2022-09-09T05:07:52;13.50;99.90
11772;DHT22;12556;55.748;13.194;2022-09-09T05:10:18;13.50;99.90
11772;DHT22;12556;55.748;13.194;2022-09-09T05:12:52;13.50;99.90
11772;DHT22;12556;55.748;13.194;2022-09-09T05:15:19;13.60;99.90
11772;DHT22;12556;55.748;13.194;2022-09-09T05:17:47;13.50;99.90
11772;DHT22;12556;55.748;13.194;2022-09-09T05:20:15;13.50;99.90
11772;DHT22;12556;55.748;13.194;2022-09-09T05:22:42;13.60;99.90
11772;DHT22;12556;55.748;13.194;2022-09-09T05:25:09;13.60;99.90
11772;DHT22;12556;55.748;13.194;2022-09-09T05:27:36;13.60;99.90
11772;DHT22;12556;55.748;13.194;2022-09-09T05:30:03;13.60;99.90
11772;DHT22;12556;55.748;13.194;2022-09-09T05:32:31;13.60;99.90
11772;DHT22;12556;55.748;13.194;2022-09-09T05:34:59;13.60;99.90
11772;DHT22;12556;55.748;13.194;2022-09-09T05:37:28;13.70;99.90
11772;DHT22;12556;55.748;13.194;2022-09-09T05:39:55;13.60;99.90
11772;DHT22;12556;55.748;13.194;2022-09-09T05:42:23;13.70;99.90
11772;DHT22;12556;55.748;13.194;2022-09-09T05:44:50;14.60;99.90
11772;DHT22;12556;55.748;13.194;2022-09-09T05:47:19;13.70;99.90
11772;DHT22;12556;55.748;13.194;2022-09-09T05:49:46;13.70;99.90
11772;DHT22;12556;55.748;13.194;2022-09-09T05:52:13;13.70;99.90
11772;DHT22;12556;55.748;13.194;2022-09-09T05:54:41;13.80;99.90
11772;DHT22;12556;55.748;13.194;2022-09-09T05:57:09;13.70;99.90
11772;DHT22;12556;55.748;13.194;2022-09-09T05:59:35;13.80;99.90
11772;DHT22;12556;55.748;13.194;2022-09-09T06:02:03;13.70;99.90
11772;DHT22;12556;55.748;13.194;2022-09-09T06:04:30;13.80;99.90
11772;DHT22;12556;55.748;13.194;2022-09-09T06:06:57;13.80;99.90
11772;DHT22;12556;55.748;13.194;2022-09-09T06:09:24;13.80;99.90
11772;DHT22;12556;55.748;13.194;2022-09-09T06:11:53;13.80;99.90
11772;DHT22;12556;55.748;13.194;2022-09-09T06:14:20;13.80;99.90
11772;DHT22;12556;55.748;13.194;2022-09-09T06:16:47;13.80;99.90
11772;DHT22;12556;55.748;13.194;2022-09-09T06:19:14;13.80;99.90
11772;DHT22;12556;55.748;13.194;2022-09-09T06:21:41;13.90;99.90
11772;DHT22;12556;55.748;13.194;2022-09-09T06:24:10;13.90;99.90
11772;DHT22;12556;55.748;13.194;2022-09-09T06:26:39;13.80;99.90
11772;DHT22;12556;55.748;13.194;2022-09-09T06:29:08;13.90;99.90
11772;DHT22;12556;55.748;13.194;2022-09-09T06:31:36;13.90;99.90
11772;DHT22;12556;55.748;13.194;2022-09-09T06:34:05;13.90;99.90
11772;DHT22;12556;55.748;13.194;2022-09-09T06:36:34;13.90;99.90
11772;DHT22;12556;55.748;13.194;2022-09-09T06:39:01;13.90;99.90
11772;DHT22;12556;55.748;13.194;2022-09-09T06:41:29;13.90;99.90
11772;DHT22;12556;55.748;13.194;2022-09-09T06:43:57;14.00;99.90
11772;DHT22;12556;55.748;13.194;2022-09-09T06:46:26;14.00;99.90
11772;DHT22;12556;55.748;13.194;2022-09-09T06:48:56;14.00;99.90
11772;DHT22;12556;55.748;13.194;2022-09-09T06:51:26;14.10;99.90
11772;DHT22;12556;55.748;13.194;2022-09-09T06:53:54;14.10;99.90
11772;DHT22;12556;55.748;13.194;2022-09-09T06:56:23;14.10;99.90
11772;DHT22;12556;55.748;13.194;2022-09-09T06:58:52;14.20;99.90
11772;DHT22;12556;55.748;13.194;2022-09-09T07:01:21;14.20;99.90
11772;DHT22;12556;55.748;13.194;2022-09-09T07:03:51;14.30;99.90
11772;DHT22;12556;55.748;13.194;2022-09-09T07:06:20;14.20;99.90
11772;DHT22;12556;55.748;13.194;2022-09-09T07:08:50;14.30;99.90
11772;DHT22;12556;55.748;13.194;2022-09-09T07:11:18;14.30;99.90
11772;DHT22;12556;55.748;13.194;2022-09-09T07:13:46;14.30;99.90
11772;DHT22;12556;55.748;13.194;2022-09-09T07:16:16;14.30;99.90
11772;DHT22;12556;55.748;13.194;2022-09-09T07:18:44;14.30;99.90
11772;DHT22;12556;55.748;13.194;2022-09-09T07:21:13;14.40;99.90
11772;DHT22;12556;55.748;13.194;2022-09-09T07:23:41;14.40;99.90
11772;DHT22;12556;55.748;13.194;2022-09-09T07:26:09;14.40;99.90
11772;DHT22;12556;55.748;13.194;2022-09-09T07:28:37;14.40;99.90
11772;DHT22;12556;55.748;13.194;2022-09-09T07:31:05;14.40;99.90
11772;DHT22;12556;55.748;13.194;2022-09-09T07:33:33;14.50;99.90
11772;DHT22;12556;55.748;13.194;2022-09-09T07:36:08;14.50;99.90
11772;DHT22;12556;55.748;13.194;2022-09-09T07:38:41;14.50;99.90
11772;DHT22;12556;55.748;13.194;2022-09-09T07:41:11;14.50;99.90
11772;DHT22;12556;55.748;13.194;2022-09-09T07:43:39;14.50;99.90
11772;DHT22;12556;55.748;13.194;2022-09-09T07:46:06;14.50;99.90
11772;DHT22;12556;55.748;13.194;2022-09-09T07:48:33;14.60;99.90
11772;DHT22;12556;55.748;13.194;2022-09-09T07:51:06;14.60;99.90
11772;DHT22;12556;55.748;13.194;2022-09-09T07:53:33;14.70;99.90
11772;DHT22;12556;55.748;13.194;2022-09-09T07:56:08;14.70;99.90
11772;DHT22;12556;55.748;13.194;2022-09-09T07:58:36;14.70;99.90
11772;DHT22;12556;55.748;13.194;2022-09-09T08:01:07;14.70;99.90
11772;DHT22;12556;55.748;13.194;2022-09-09T08:03:35;14.70;99.90
11772;DHT22;12556;55.748;13.194;2022-09-09T08:06:02;14.80;99.90
11772;DHT22;12556;55.748;13.194;2022-09-09T08:08:29;14.80;99.90
11772;DHT22;12556;55.748;13.194;2022-09-09T08:11:10;14.80;99.90
11772;DHT22;12556;55.748;13.194;2022-09-09T08:13:38;14.90;99.90
11772;DHT22;12556;55.748;13.194;2022-09-09T08:16:07;14.90;99.90
11772;DHT22;12556;55.748;13.194;2022-09-09T08:18:34;14.90;99.90
11772;DHT22;12556;55.748;13.194;2022-09-09T08:21:09;15.00;99.90
11772;DHT22;12556;55.748;13.194;2022-09-09T08:23:38;15.00;99.90
11772;DHT22;12556;55.748;13.194;2022-09-09T08:26:10;15.00;99.90
11772;DHT22;12556;55.748;13.194;2022-09-09T08:28:38;15.00;99.90
11772;DHT22;12556;55.748;13.194;2022-09-09T08:31:09;15.00;99.90
11772;DHT22;12556;55.748;13.194;2022-09-09T08:33:37;15.10;99.90
11772;DHT22;12556;55.748;13.194;2022-09-09T08:36:05;15.10;99.90
11772;DHT22;12556;55.748;13.194;2022-09-09T08:38:32;15.20;99.90
11772;DHT22;12556;55.748;13.194;2022-09-09T08:41:25;15.40;99.90
11772;DHT22;12556;55.748;13.194;2022-09-09T08:44:02;15.40;99.90
11772;DHT22;12556;55.748;13.194;2022-09-09T08:46:36;15.50;99.90
11772;DHT22;12556;55.748;13.194;2022-09-09T08:49:15;15.70;99.90
11772;DHT22;12556;55.748;13.194;2022-09-09T08:51:44;15.80;99.90
11772;DHT22;12556;55.748;13.194;2022-09-09T08:54:10;15.90;99.90
11772;DHT22;12556;55.748;13.194;2022-09-09T08:56:41;16.00;99.90
11772;DHT22;12556;55.748;13.194;2022-09-09T08:59:14;16.10;99.90
11772;DHT22;12556;55.748;13.194;2022-09-09T09:02:07;16.10;99.90
11772;DHT22;12556;55.748;13.194;2022-09-09T09:04:51;16.20;99.90
11772;DHT22;12556;55.748;13.194;2022-09-09T09:07:28;16.20;99.90
11772;DHT22;12556;55.748;13.194;2022-09-09T09:10:04;16.30;99.90
11772;DHT22;12556;55.748;13.194;2022-09-09T09:12:41;16.30;99.90
11772;DHT22;12556;55.748;13.194;2022-09-09T09:15:16;16.40;99.90
11772;DHT22;12556;55.748;13.194;2022-09-09T09:17:44;16.40;99.90
11772;DHT22;12556;55.748;13.194;2022-09-09T09:20:12;16.50;99.90
11772;DHT22;12556;55.748;13.194;2022-09-09T09:22:47;16.60;99.90
11772;DHT22;12556;55.748;13.194;2022-09-09T09:25:18;16.80;99.90
11772;DHT22;12556;55.748;13.194;2022-09-09T09:27:52;16.80;99.90
11772;DHT22;12556;55.748;13.194;2022-09-09T09:30:22;17.00;99.90
11772;DHT22;12556;55.748;13.194;2022-09-09T09:32:54;17.20;99.90
11772;DHT22;12556;55.748;13.194;2022-09-09T09:35:22;17.40;99.90
11772;DHT22;12556;55.748;13.194;2022-09-09T09:37:49;17.60;99.90
11772;DHT22;12556;55.748;13.194;2022-09-09T09:40:18;17.80;99.90
11772;DHT22;12556;55.748;13.194;2022-09-09T09:42:52;17.90;99.90
11772;DHT22;12556;55.748;13.194;2022-09-09T09:45:28;18.10;99.90
11772;DHT22;12556;55.748;13.194;2022-09-09T09:48:02;18.20;99.90
11772;DHT22;12556;55.748;13.194;2022-09-09T09:50:30;18.40;99.90
11772;DHT22;12556;55.748;13.194;2022-09-09T09:53:00;18.60;99.90
11772;DHT22;12556;55.748;13.194;2022-09-09T09:55:29;18.60;99.90
11772;DHT22;12556;55.748;13.194;2022-09-09T09:58:03;18.80;99.90
11772;DHT22;12556;55.748;13.194;2022-09-09T10:00:30;18.90;99.90
11772;DHT22;12556;55.748;13.194;2022-09-09T10:02:59;18.90;99.90
11772;DHT22;12556;55.748;13.194;2022-09-09T10:05:28;19.00;99.90
11772;DHT22;12556;55.748;13.194;2022-09-09T10:08:03;19.00;99.90
11772;DHT22;12556;55.748;13.194;2022-09-09T10:10:45;19.00;99.90
11772;DHT22;12556;55.748;13.194;2022-09-09T10:13:20;19.00;99.90
11772;DHT22;12556;55.748;13.194;2022-09-09T10:16:02;19.00;99.90
11772;DHT22;12556;55.748;13.194;2022-09-09T10:18:43;19.00;99.90
11772;DHT22;12556;55.748;13.194;2022-09-09T10:21:26;18.90;99.90
11772;DHT22;12556;55.748;13.194;2022-09-09T10:24:23;18.90;99.90
11772;DHT22;12556;55.748;13.194;2022-09-09T10:26:58;18.90;99.90
11772;DHT22;12556;55.748;13.194;2022-09-09T10:29:42;18.90;99.90
11772;DHT22;12556;55.748;13.194;2022-09-09T10:32:30;19.00;99.90
11772;DHT22;12556;55.748;13.194;2022-09-09T10:35:04;19.10;99.90
11772;DHT22;12556;55.748;13.194;2022-09-09T10:37:54;19.10;99.90
11772;DHT22;12556;55.748;13.194;2022-09-09T10:40:34;19.10;99.90
11772;DHT22;12556;55.748;13.194;2022-09-09T10:43:12;19.20;99.90
11772;DHT22;12556;55.748;13.194;2022-09-09T10:45:49;19.30;99.90
11772;DHT22;12556;55.748;13.194;2022-09-09T10:48:30;19.30;99.90
11772;DHT22;12556;55.748;13.194;2022-09-09T10:51:06;19.40;99.90
11772;DHT22;12556;55.748;13.194;2022-09-09T10:53:43;19.50;99.90
11772;DHT22;12556;55.748;13.194;2022-09-09T10:56:15;19.50;99.90
11772;DHT22;12556;55.748;13.194;2022-09-09T10:58:47;19.70;99.90
11772;DHT22;12556;55.748;13.194;2022-09-09T11:01:19;19.70;99.90
11772;DHT22;12556;55.748;13.194;2022-09-09T11:03:54;19.80;99.90
11772;DHT22;12556;55.748;13.194;2022-09-09T11:06:30;19.90;99.90
11772;DHT22;12556;55.748;13.194;2022-09-09T11:09:01;20.00;99.90
11772;DHT22;12556;55.748;13.194;2022-09-09T11:11:33;20.10;99.90
11772;DHT22;12556;55.748;13.194;2022-09-09T11:14:08;20.10;99.90
11772;DHT22;12556;55.748;13.194;2022-09-09T11:16:40;20.20;99.90
11772;DHT22;12556;55.748;13.194;2022-09-09T11:19:15;20.40;99.90
11772;DHT22;12556;55.748;13.194;2022-09-09T11:21:46;20.40;99.90
11772;DHT22;12556;55.748;13.194;2022-09-09T11:24:17;20.40;99.90
11772;DHT22;12556;55.748;13.194;2022-09-09T11:26:49;20.30;99.90
11772;DHT22;12556;55.748;13.194;2022-09-09T11:29:32;20.40;99.90
11772;DHT22;12556;55.748;13.194;2022-09-09T11:32:13;20.50;99.90
11772;DHT22;12556;55.748;13.194;2022-09-09T11:34:51;20.60;99.90
11772;DHT22;12556;55.748;13.194;2022-09-09T11:37:53;20.70;99.90
11772;DHT22;12556;55.748;13.194;2022-09-09T11:40:26;20.70;99.90
11772;DHT22;12556;55.748;13.194;2022-09-09T11:43:04;20.70;99.90
11772;DHT22;12556;55.748;13.194;2022-09-09T11:45:33;20.70;99.90
11772;DHT22;12556;55.748;13.194;2022-09-09T11:48:04;20.60;99.90
11772;DHT22;12556;55.748;13.194;2022-09-09T11:50:36;20.60;99.90
11772;DHT22;12556;55.748;13.194;2022-09-09T11:53:18;20.70;99.90
11772;DHT22;12556;55.748;13.194;2022-09-09T11:56:00;20.70;99.90
11772;DHT22;12556;55.748;13.194;2022-09-09T11:58:28;20.80;99.90
11772;DHT22;12556;55.748;13.194;2022-09-09T12:00:59;20.70;99.90
11772;DHT22;12556;55.748;13.194;2022-09-09T12:03:36;20.70;99.90
11772;DHT22;12556;55.748;13.194;2022-09-09T12:06:13;20.60;99.90
11772;DHT22;12556;55.748;13.194;2022-09-09T12:08:45;20.60;99.90
11772;DHT22;12556;55.748;13.194;2022-09-09T12:11:24;20.50;99.90
11772;DHT22;12556;55.748;13.194;2022-09-09T12:13:55;20.50;99.90
11772;DHT22;12556;55.748;13.194;2022-09-09T12:16:30;20.40;99.90
11772;DHT22;12556;55.748;13.194;2022-09-09T12:19:16;20.30;99.90
11772;DHT22;12556;55.748;13.194;2022-09-09T12:21:50;20.30;99.90
11772;DHT22;12556;55.748;13.194;2022-09-09T12:24:23;20.20;99.90
11772;DHT22;12556;55.748;13.194;2022-09-09T12:26:58;20.30;99.90
11772;DHT22;12556;55.748;13.194;2022-09-09T12:29:32;20.70;99.90
11772;DHT22;12556;55.748;13.194;2022-09-09T12:32:06;21.00;99.90
11772;DHT22;12556;55.748;13.194;2022-09-09T12:34:39;21.20;99.90
11772;DHT22;12556;55.748;13.194;2022-09-09T12:37:14;21.20;99.90
11772;DHT22;12556;55.748;13.194;2022-09-09T12:39:45;21.30;99.90
11772;DHT22;12556;55.748;13.194;2022-09-09T12:42:18;21.30;99.90
11772;DHT22;12556;55.748;13.194;2022-09-09T12:44:52;21.40;99.90
11772;DHT22;12556;55.748;13.194;2022-09-09T12:47:22;21.50;99.90
11772;DHT22;12556;55.748;13.194;2022-09-09T12:49:53;21.70;99.90
11772;DHT22;12556;55.748;13.194;2022-09-09T12:52:26;21.80;99.90
11772;DHT22;12556;55.748;13.194;2022-09-09T12:54:56;22.00;99.90
11772;DHT22;12556;55.748;13.194;2022-09-09T12:57:25;22.20;99.90
11772;DHT22;12556;55.748;13.194;2022-09-09T13:00:07;22.50;99.90
11772;DHT22;12556;55.748;13.194;2022-09-09T13:02:46;22.60;99.90
11772;DHT22;12556;55.748;13.194;2022-09-09T13:05:17;22.50;99.90
11772;DHT22;12556;55.748;13.194;2022-09-09T13:07:44;22.40;99.90
11772;DHT22;12556;55.748;13.194;2022-09-09T13:10:14;22.40;99.90
11772;DHT22;12556;55.748;13.194;2022-09-09T13:12:42;22.40;99.90
11772;DHT22;12556;55.748;13.194;2022-09-09T13:15:19;22.30;99.90
11772;DHT22;12556;55.748;13.194;2022-09-09T13:17:51;22.20;99.90
11772;DHT22;12556;55.748;13.194;2022-09-09T13:20:21;22.20;99.90
11772;DHT22;12556;55.748;13.194;2022-09-09T13:22:49;22.20;99.90
11772;DHT22;12556;55.748;13.194;2022-09-09T13:25:21;22.10;99.90
11772;DHT22;12556;55.748;13.194;2022-09-09T13:27:55;22.00;99.90
11772;DHT22;12556;55.748;13.194;2022-09-09T13:30:25;21.90;99.90
11772;DHT22;12556;55.748;13.194;2022-09-09T13:33:04;21.90;99.90
11772;DHT22;12556;55.748;13.194;2022-09-09T13:35:33;21.80;99.90
11772;DHT22;12556;55.748;13.194;2022-09-09T13:38:07;21.70;99.90
11772;DHT22;12556;55.748;13.194;2022-09-09T13:40:35;21.60;99.90
11772;DHT22;12556;55.748;13.194;2022-09-09T13:43:02;21.40;99.90
11772;DHT22;12556;55.748;13.194;2022-09-09T13:45:31;21.30;99.90
11772;DHT22;12556;55.748;13.194;2022-09-09T13:48:09;21.30;99.90
11772;DHT22;12556;55.748;13.194;2022-09-09T13:50:37;21.40;99.90
11772;DHT22;12556;55.748;13.194;2022-09-09T13:53:04;21.60;99.90
11772;DHT22;12556;55.748;13.194;2022-09-09T13:55:31;21.70;99.90
11772;DHT22;12556;55.748;13.194;2022-09-09T13:57:59;21.70;99.90
11772;DHT22;12556;55.748;13.194;2022-09-09T14:00:29;21.70;99.90
11772;DHT22;12556;55.748;13.194;2022-09-09T14:02:56;21.70;99.90
11772;DHT22;12556;55.748;13.194;2022-09-09T14:05:25;21.70;99.90
11772;DHT22;12556;55.748;13.194;2022-09-09T14:07:54;21.80;99.90
11772;DHT22;12556;55.748;13.194;2022-09-09T14:10:21;21.90;99.90
11772;DHT22;12556;55.748;13.194;2022-09-09T14:12:48;21.90;99.90
11772;DHT22;12556;55.748;13.194;2022-09-09T14:15:15;21.90;99.50
11772;DHT22;12556;55.748;13.194;2022-09-09T14:17:42;21.90;99.40
11772;DHT22;12556;55.748;13.194;2022-09-09T14:20:10;21.80;99.50
11772;DHT22;12556;55.748;13.194;2022-09-09T14:22:40;21.70;99.70
11772;DHT22;12556;55.748;13.194;2022-09-09T14:25:09;21.60;99.90
11772;DHT22;12556;55.748;13.194;2022-09-09T14:27:36;21.60;99.90
11772;DHT22;12556;55.748;13.194;2022-09-09T14:30:05;21.60;99.90
11772;DHT22;12556;55.748;13.194;2022-09-09T14:32:32;21.40;99.90
11772;DHT22;12556;55.748;13.194;2022-09-09T14:34:59;21.40;99.90
11772;DHT22;12556;55.748;13.194;2022-09-09T14:37:27;21.30;99.90
11772;DHT22;12556;55.748;13.194;2022-09-09T14:39:56;21.30;99.90
11772;DHT22;12556;55.748;13.194;2022-09-09T14:42:25;21.30;99.90
11772;DHT22;12556;55.748;13.194;2022-09-09T14:44:52;21.30;99.90
11772;DHT22;12556;55.748;13.194;2022-09-09T14:47:19;21.30;99.90
11772;DHT22;12556;55.748;13.194;2022-09-09T14:49:46;21.20;99.90
11772;DHT22;12556;55.748;13.194;2022-09-09T14:52:15;21.20;99.90
11772;DHT22;12556;55.748;13.194;2022-09-09T14:54:43;21.20;99.90
11772;DHT22;12556;55.748;13.194;2022-09-09T14:57:09;21.10;99.90
11772;DHT22;12556;55.748;13.194;2022-09-09T14:59:38;21.00;99.90
11772;DHT22;12556;55.748;13.194;2022-09-09T15:02:05;20.90;99.90
11772;DHT22;12556;55.748;13.194;2022-09-09T15:04:32;20.80;99.90
11772;DHT22;12556;55.748;13.194;2022-09-09T15:06:59;20.70;99.90
11772;DHT22;12556;55.748;13.194;2022-09-09T15:09:26;20.60;99.90
11772;DHT22;12556;55.748;13.194;2022-09-09T15:11:53;20.60;99.90
11772;DHT22;12556;55.748;13.194;2022-09-09T15:14:20;20.50;99.90
11772;DHT22;12556;55.748;13.194;2022-09-09T15:16:48;20.40;99.90
11772;DHT22;12556;55.748;13.194;2022-09-09T15:19:15;20.30;99.90
11772;DHT22;12556;55.748;13.194;2022-09-09T15:21:41;20.40;99.90
11772;DHT22;12556;55.748;13.194;2022-09-09T15:24:08;20.30;99.90
11772;DHT22;12556;55.748;13.194;2022-09-09T15:26:37;20.30;99.90
11772;DHT22;12556;55.748;13.194;2022-09-09T15:29:05;20.40;99.90
11772;DHT22;12556;55.748;13.194;2022-09-09T15:31:32;20.40;99.90
11772;DHT22;12556;55.748;13.194;2022-09-09T15:34:02;20.30;99.90
11772;DHT22;12556;55.748;13.194;2022-09-09T15:36:31;20.30;99.90
11772;DHT22;12556;55.748;13.194;2022-09-09T15:38:58;20.20;99.90
11772;DHT22;12556;55.748;13.194;2022-09-09T15:41:25;20.20;99.90